createdAt,value
2018-12-26T00:00:29.713Z,-0.90
2018-12-26T00:02:59.778Z,-0.90
2018-12-26T00:05:30.132Z,-1.00
2018-12-26T00:08:00.669Z,-1.00
2018-12-26T00:10:30.778Z,-1.00
2018-12-26T00:13:01.067Z,-1.00
2018-12-26T00:15:31.278Z,-1.00
2018-12-26T00:18:01.580Z,-1.00
2018-12-26T00:20:32.573Z,-1.00
2018-12-26T00:23:03.008Z,-1.10
2018-12-26T00:25:33.083Z,-1.10
2018-12-26T00:28:03.337Z,-1.10
2018-12-26T00:30:33.478Z,-1.10
2018-12-26T00:33:03.641Z,-1.10
2018-12-26T00:35:33.858Z,-1.10
2018-12-26T00:38:06.088Z,-1.20
2018-12-26T00:40:36.253Z,-1.20
2018-12-26T00:43:06.892Z,-1.20
2018-12-26T00:45:36.956Z,-1.10
2018-12-26T00:48:07.158Z,-1.10
2018-12-26T00:50:37.198Z,-1.10
2018-12-26T00:53:07.287Z,-1.10
2018-12-26T00:55:37.368Z,-1.10
2018-12-26T00:58:07.587Z,-1.10
2018-12-26T01:00:37.744Z,-1.10
2018-12-26T01:03:09.704Z,-1.20
2018-12-26T01:05:39.748Z,-1.10
2018-12-26T01:08:09.890Z,-1.20
2018-12-26T01:10:42.433Z,-1.20
2018-12-26T01:13:12.259Z,-1.20
2018-12-26T01:15:42.386Z,-1.20
2018-12-26T01:18:12.443Z,-1.20
2018-12-26T01:20:42.524Z,-1.30
2018-12-26T01:23:12.744Z,-1.30
2018-12-26T01:25:42.825Z,-1.30
2018-12-26T01:28:12.992Z,-1.30
2018-12-26T01:30:44.735Z,-1.30
2018-12-26T01:33:14.854Z,-1.30
2018-12-26T01:35:45.068Z,-1.30
2018-12-26T01:38:15.134Z,-1.30
2018-12-26T01:40:45.279Z,-1.30
2018-12-26T01:43:15.353Z,-1.30
2018-12-26T01:45:45.400Z,-1.30
2018-12-26T01:48:15.560Z,-1.30
2018-12-26T01:50:47.467Z,-1.30
2018-12-26T01:53:17.966Z,-1.30
2018-12-26T01:55:48.018Z,-1.30
2018-12-26T01:58:18.126Z,-1.30
2018-12-26T02:00:52.773Z,-1.30
2018-12-26T02:03:22.886Z,-1.30
2018-12-26T02:05:52.950Z,-1.20
2018-12-26T02:08:23.299Z,-1.20
2018-12-26T02:10:53.368Z,-1.20
2018-12-26T02:13:23.541Z,-1.20
2018-12-26T02:15:53.651Z,-1.20
2018-12-26T02:18:23.787Z,-1.20
2018-12-26T02:20:53.929Z,-1.20
2018-12-26T02:23:24.082Z,-1.20
2018-12-26T02:25:54.290Z,-1.20
2018-12-26T02:28:24.605Z,-1.30
2018-12-26T02:30:56.156Z,-1.30
2018-12-26T02:33:26.309Z,-1.30
2018-12-26T02:35:59.217Z,-1.30
2018-12-26T02:38:31.437Z,-1.30
2018-12-26T02:41:03.432Z,-1.40
2018-12-26T02:43:35.700Z,-1.40
2018-12-26T02:46:05.760Z,-1.40
2018-12-26T02:48:35.899Z,-1.40
2018-12-26T02:51:09.314Z,-1.40
2018-12-26T02:53:39.577Z,-1.40
2018-12-26T02:56:09.725Z,-1.40
2018-12-26T02:58:39.896Z,-1.40
2018-12-26T03:01:10.015Z,-1.40
2018-12-26T03:03:41.706Z,-1.50
2018-12-26T03:06:15.360Z,-1.50
2018-12-26T03:08:45.454Z,-1.50
2018-12-26T03:11:17.387Z,-1.50
2018-12-26T03:13:47.721Z,-1.50
2018-12-26T03:16:17.780Z,-1.50
2018-12-26T03:18:48.520Z,-1.40
2018-12-26T03:21:18.566Z,-1.40
2018-12-26T03:23:48.628Z,-1.40
2018-12-26T03:26:18.963Z,-1.40
2018-12-26T03:28:49.411Z,-1.40
2018-12-26T03:31:22.677Z,-1.40
2018-12-26T03:33:52.983Z,-1.40
2018-12-26T03:36:23.428Z,-1.40
2018-12-26T03:38:53.764Z,-1.40
2018-12-26T03:41:23.876Z,-1.40
2018-12-26T03:43:54.139Z,-1.40
2018-12-26T03:46:25.392Z,-1.40
2018-12-26T03:48:55.536Z,-1.40
2018-12-26T03:51:25.741Z,-1.40
2018-12-26T03:53:55.970Z,-1.30
2018-12-26T03:56:27.124Z,-1.30
2018-12-26T03:59:01.831Z,-1.30
2018-12-26T04:01:31.968Z,-1.30
2018-12-26T04:04:02.194Z,-1.30
2018-12-26T04:06:34.572Z,-1.30
2018-12-26T04:09:06.640Z,-1.30
2018-12-26T04:11:37.337Z,-1.30
2018-12-26T04:14:07.415Z,-1.30
2018-12-26T04:16:38.107Z,-1.40
2018-12-26T04:19:08.387Z,-1.40
2018-12-26T04:21:38.556Z,-1.40
2018-12-26T04:24:09.006Z,-1.40
2018-12-26T04:26:39.200Z,-1.40
2018-12-26T04:29:09.257Z,-1.40
2018-12-26T04:31:39.891Z,-1.40
2018-12-26T04:34:10.020Z,-1.40
2018-12-26T04:36:40.222Z,-1.40
2018-12-26T04:39:10.328Z,-1.40
2018-12-26T04:41:40.466Z,-1.40
2018-12-26T04:44:10.634Z,-1.40
2018-12-26T04:46:40.947Z,-1.40
2018-12-26T04:49:11.102Z,-1.40
2018-12-26T04:51:41.129Z,-1.40
2018-12-26T04:54:11.324Z,-1.40
2018-12-26T04:56:41.475Z,-1.40
2018-12-26T04:59:11.731Z,-1.50
2018-12-26T05:01:42.210Z,-1.30
2018-12-26T05:04:14.911Z,-1.00
2018-12-26T05:06:46.851Z,-1.00
2018-12-26T05:09:18.614Z,-1.20
2018-12-26T05:11:48.785Z,-1.30
2018-12-26T05:14:18.931Z,-1.40
2018-12-26T05:16:48.975Z,-1.50
2018-12-26T05:19:19.053Z,-1.50
2018-12-26T05:21:49.090Z,-1.50
2018-12-26T05:24:19.309Z,-1.60
2018-12-26T05:26:49.605Z,-1.60
2018-12-26T05:29:20.088Z,-1.60
2018-12-26T05:31:50.334Z,-1.60
2018-12-26T05:34:20.479Z,-1.60
2018-12-26T05:36:50.518Z,-1.60
2018-12-26T05:39:20.599Z,-1.60
2018-12-26T05:41:50.654Z,-1.70
2018-12-26T05:44:20.931Z,-1.60
2018-12-26T05:46:51.146Z,-1.70
2018-12-26T05:49:21.800Z,-1.70
2018-12-26T05:51:51.939Z,-1.70
2018-12-26T05:54:22.010Z,-1.70
2018-12-26T05:56:52.053Z,-1.60
2018-12-26T05:59:22.217Z,-1.60
2018-12-26T06:01:52.329Z,-1.60
2018-12-26T06:04:22.603Z,-1.60
2018-12-26T06:06:52.839Z,-1.60
2018-12-26T06:09:23.007Z,-1.60
2018-12-26T06:11:53.540Z,-1.60
2018-12-26T06:14:23.795Z,-1.60
2018-12-26T06:16:53.841Z,-1.60
2018-12-26T06:19:24.104Z,-1.60
2018-12-26T06:21:54.153Z,-1.60
2018-12-26T06:24:24.266Z,-1.60
2018-12-26T06:26:54.306Z,-1.60
2018-12-26T06:29:24.453Z,-1.60
2018-12-26T06:31:58.034Z,-1.60
2018-12-26T06:34:28.188Z,-1.60
2018-12-26T06:36:58.231Z,-1.60
2018-12-26T06:39:28.407Z,-1.60
2018-12-26T06:41:58.909Z,-1.60
2018-12-26T06:44:29.000Z,-1.60
2018-12-26T06:46:59.142Z,-1.60
2018-12-26T06:49:29.373Z,-1.70
2018-12-26T06:51:59.441Z,-1.70
2018-12-26T06:54:31.591Z,-1.70
2018-12-26T06:57:01.633Z,-1.70
2018-12-26T06:59:31.860Z,-1.70
2018-12-26T07:02:01.921Z,-1.70
2018-12-26T07:04:36.165Z,-1.60
2018-12-26T07:07:06.436Z,-1.60
2018-12-26T07:09:36.530Z,-1.60
2018-12-26T07:12:10.859Z,-1.60
2018-12-26T07:14:40.975Z,-1.60
2018-12-26T07:17:11.018Z,-1.60
2018-12-26T07:19:41.141Z,-1.60
2018-12-26T07:22:11.320Z,-1.60
2018-12-26T07:24:41.633Z,-1.60
2018-12-26T07:27:11.797Z,-1.60
2018-12-26T07:29:41.894Z,-1.60
2018-12-26T07:32:12.033Z,-1.60
2018-12-26T07:34:42.602Z,-1.60
2018-12-26T07:37:12.844Z,-1.60
2018-12-26T07:39:43.024Z,-1.60
2018-12-26T07:42:13.162Z,-1.60
2018-12-26T07:44:43.367Z,-1.60
2018-12-26T07:47:13.512Z,-1.60
2018-12-26T07:49:43.589Z,-1.60
2018-12-26T07:52:13.921Z,-1.60
2018-12-26T07:54:44.107Z,-1.60
2018-12-26T07:57:14.242Z,-1.50
2018-12-26T07:59:44.823Z,-1.50
2018-12-26T08:02:14.869Z,-1.40
2018-12-26T08:04:45.023Z,-1.40
2018-12-26T08:07:15.163Z,-1.30
2018-12-26T08:09:45.303Z,-1.30
2018-12-26T08:12:15.404Z,-1.20
2018-12-26T08:14:45.531Z,-1.20
2018-12-26T08:17:15.714Z,-1.20
2018-12-26T08:19:45.924Z,-1.20
2018-12-26T08:22:18.988Z,-1.10
2018-12-26T08:24:49.333Z,-1.10
2018-12-26T08:27:19.383Z,-1.10
2018-12-26T08:29:49.643Z,-1.00
2018-12-26T08:32:19.860Z,-1.00
2018-12-26T08:34:50.233Z,-0.90
2018-12-26T08:37:20.342Z,-0.80
2018-12-26T08:39:53.306Z,-0.70
2018-12-26T08:42:23.548Z,-0.70
2018-12-26T08:44:53.774Z,-0.70
2018-12-26T08:47:23.966Z,-0.60
2018-12-26T08:49:57.108Z,-0.50
2018-12-26T08:52:27.220Z,-0.50
2018-12-26T08:54:57.902Z,-0.40
2018-12-26T08:57:29.414Z,-0.40
2018-12-26T08:59:59.718Z,-0.30
2018-12-26T09:02:30.153Z,-0.30
2018-12-26T09:05:00.362Z,-0.20
2018-12-26T09:07:30.574Z,-0.20
2018-12-26T09:10:00.707Z,-0.10
2018-12-26T09:12:30.818Z,-0.10
2018-12-26T09:15:02.775Z,-0.10
2018-12-26T09:17:32.886Z,-0.10
2018-12-26T09:20:03.023Z,-0.10
2018-12-26T09:22:33.098Z,-0.10
2018-12-26T09:25:03.256Z,0.00
2018-12-26T09:27:34.899Z,0.10
2018-12-26T09:30:05.539Z,0.10
2018-12-26T09:32:35.777Z,0.10
2018-12-26T09:35:07.643Z,0.20
2018-12-26T09:37:39.587Z,0.20
2018-12-26T09:40:09.794Z,0.20
2018-12-26T09:42:40.287Z,0.30
2018-12-26T09:45:10.588Z,0.30
2018-12-26T09:47:40.643Z,0.30
2018-12-26T09:50:13.077Z,0.40
2018-12-26T09:52:43.385Z,0.40
2018-12-26T09:55:15.133Z,0.40
2018-12-26T09:57:47.586Z,0.40
2018-12-26T10:00:17.861Z,0.40
2018-12-26T10:02:47.961Z,0.40
2018-12-26T10:05:19.154Z,0.40
2018-12-26T10:07:49.306Z,0.50
2018-12-26T10:10:19.462Z,0.50
2018-12-26T10:12:49.517Z,0.50
2018-12-26T10:15:19.745Z,0.50
2018-12-26T10:17:49.796Z,0.50
2018-12-26T10:20:19.873Z,0.60
2018-12-26T10:22:50.085Z,0.60
2018-12-26T10:25:20.414Z,0.60
2018-12-26T10:27:50.569Z,0.60
2018-12-26T10:30:20.728Z,0.60
2018-12-26T10:32:50.845Z,0.60
2018-12-26T10:35:21.147Z,0.70
2018-12-26T10:37:51.617Z,0.70
2018-12-26T10:40:22.813Z,0.70
2018-12-26T10:42:52.866Z,0.70
2018-12-26T10:45:23.042Z,0.70
2018-12-26T10:47:54.810Z,0.80
2018-12-26T10:50:26.417Z,0.90
2018-12-26T10:52:56.612Z,0.90
2018-12-26T10:55:26.875Z,1.00
2018-12-26T10:57:56.936Z,1.00
2018-12-26T11:00:27.208Z,1.10
2018-12-26T11:02:58.875Z,1.10
2018-12-26T11:05:29.721Z,1.20
2018-12-26T11:07:59.937Z,1.30
2018-12-26T11:10:30.202Z,1.30
2018-12-26T11:13:00.348Z,1.40
2018-12-26T11:15:32.065Z,1.50
2018-12-26T11:18:02.220Z,1.60
2018-12-26T11:20:32.509Z,1.70
2018-12-26T11:23:03.915Z,1.70
2018-12-26T11:25:38.696Z,1.90
2018-12-26T11:28:10.749Z,2.00
2018-12-26T11:30:40.953Z,2.10
2018-12-26T11:33:14.684Z,2.10
2018-12-26T11:35:45.376Z,2.20
2018-12-26T11:38:15.705Z,2.20
2018-12-26T11:40:45.784Z,2.30
2018-12-26T11:43:15.886Z,2.40
2018-12-26T11:45:46.174Z,2.50
2018-12-26T11:48:16.922Z,2.50
2018-12-26T11:50:47.200Z,2.60
2018-12-26T11:53:19.843Z,2.70
2018-12-26T11:55:50.040Z,2.80
2018-12-26T11:58:20.157Z,2.90
2018-12-26T12:00:50.454Z,3.00
2018-12-26T12:03:20.493Z,3.00
2018-12-26T12:05:50.822Z,3.00
2018-12-26T12:08:21.008Z,3.00
2018-12-26T12:10:53.124Z,3.10
2018-12-26T12:13:23.248Z,3.10
2018-12-26T12:15:53.459Z,3.10
2018-12-26T12:18:23.627Z,3.20
2018-12-26T12:20:54.093Z,3.20
2018-12-26T12:23:24.341Z,3.40
2018-12-26T12:25:56.438Z,3.80
2018-12-26T12:28:26.687Z,4.10
2018-12-26T12:30:56.981Z,4.40
2018-12-26T12:33:27.153Z,4.60
2018-12-26T12:36:00.069Z,4.80
2018-12-26T12:38:30.274Z,5.00
2018-12-26T12:41:00.518Z,5.20
2018-12-26T12:43:32.418Z,5.10
2018-12-26T12:46:02.872Z,4.90
2018-12-26T12:48:33.262Z,4.80
2018-12-26T12:51:04.280Z,4.60
2018-12-26T12:53:34.418Z,4.60
2018-12-26T12:56:11.740Z,4.50
2018-12-26T12:58:36.706Z,4.50
2018-12-26T13:01:06.885Z,4.50
2018-12-26T13:03:36.949Z,4.40
2018-12-26T13:06:07.235Z,4.40
2018-12-26T13:08:37.801Z,4.40
2018-12-26T13:11:11.047Z,4.40
2018-12-26T13:13:41.192Z,4.40
2018-12-26T13:16:11.288Z,4.50
2018-12-26T13:18:41.503Z,4.50
2018-12-26T13:21:11.757Z,4.40
2018-12-26T13:23:41.859Z,4.40
2018-12-26T13:26:11.926Z,4.40
2018-12-26T13:28:42.135Z,4.40
2018-12-26T13:31:12.278Z,4.40
2018-12-26T13:33:42.427Z,4.40
2018-12-26T13:36:15.991Z,4.40
2018-12-26T13:38:48.559Z,4.40
2018-12-26T13:41:18.690Z,4.40
2018-12-26T13:43:49.618Z,4.40
2018-12-26T13:46:19.712Z,4.40
2018-12-26T13:48:49.778Z,4.40
2018-12-26T13:51:19.879Z,4.40
2018-12-26T13:53:50.070Z,4.30
2018-12-26T13:56:20.155Z,4.30
2018-12-26T13:58:50.365Z,4.20
2018-12-26T14:01:20.435Z,4.20
2018-12-26T14:03:50.474Z,4.20
2018-12-26T14:06:20.864Z,4.10
2018-12-26T14:08:50.899Z,4.10
2018-12-26T14:11:21.390Z,4.10
2018-12-26T14:13:51.608Z,4.00
2018-12-26T14:16:21.820Z,4.00
2018-12-26T14:18:51.944Z,4.00
2018-12-26T14:21:22.205Z,3.90
2018-12-26T14:23:52.250Z,3.90
2018-12-26T14:26:22.357Z,3.90
2018-12-26T14:28:52.443Z,3.90
2018-12-26T14:31:22.614Z,3.90
2018-12-26T14:33:52.805Z,3.90
2018-12-26T14:36:23.039Z,3.90
2018-12-26T14:38:53.646Z,3.80
2018-12-26T14:41:25.654Z,3.70
2018-12-26T14:43:55.835Z,3.60
2018-12-26T14:46:26.040Z,3.60
2018-12-26T14:48:56.270Z,3.50
2018-12-26T14:51:26.833Z,3.50
2018-12-26T14:53:58.541Z,3.40
2018-12-26T14:56:28.833Z,3.40
2018-12-26T14:58:59.069Z,3.30
2018-12-26T15:01:29.372Z,3.30
2018-12-26T15:04:02.557Z,3.30
2018-12-26T15:06:33.166Z,3.20
2018-12-26T15:09:04.522Z,3.20
2018-12-26T15:11:34.639Z,3.10
2018-12-26T15:14:04.904Z,3.00
2018-12-26T15:16:35.714Z,3.00
2018-12-26T15:19:31.179Z,3.00
2018-12-26T15:22:01.367Z,3.00
2018-12-26T15:24:31.558Z,3.10
2018-12-26T15:27:06.094Z,3.00
2018-12-26T15:29:36.335Z,2.90
2018-12-26T15:32:07.227Z,2.80
2018-12-26T15:34:37.498Z,2.70
2018-12-26T15:37:09.776Z,2.60
2018-12-26T15:39:39.946Z,2.40
2018-12-26T15:42:13.435Z,2.40
2018-12-26T15:44:43.931Z,2.30
2018-12-26T15:47:15.059Z,2.30
2018-12-26T15:49:45.099Z,2.30
2018-12-26T15:52:15.536Z,2.30
2018-12-26T15:54:45.650Z,2.20
2018-12-26T15:57:16.290Z,2.20
2018-12-26T15:59:46.362Z,2.20
2018-12-26T16:02:16.626Z,2.20
2018-12-26T16:04:46.725Z,2.20
2018-12-26T16:07:17.252Z,2.20
2018-12-26T16:09:47.901Z,2.20
2018-12-26T16:12:18.683Z,2.20
2018-12-26T16:14:49.386Z,2.20
2018-12-26T16:17:19.534Z,2.20
2018-12-26T16:19:49.654Z,2.10
2018-12-26T16:22:19.841Z,2.10
2018-12-26T16:24:50.113Z,2.10
2018-12-26T16:27:20.650Z,2.00
2018-12-26T16:29:50.694Z,2.00
2018-12-26T16:32:20.920Z,2.00
2018-12-26T16:34:51.067Z,1.90
2018-12-26T16:37:21.275Z,1.90
2018-12-26T16:39:51.491Z,1.90
2018-12-26T16:42:24.707Z,1.90
2018-12-26T16:44:54.818Z,1.80
2018-12-26T16:47:25.217Z,1.80
2018-12-26T16:49:55.301Z,1.80
2018-12-26T16:52:27.019Z,1.70
2018-12-26T16:54:57.243Z,1.60
2018-12-26T16:57:27.918Z,1.60
2018-12-26T17:00:09.621Z,1.50
2018-12-26T17:02:39.872Z,1.50
2018-12-26T17:05:10.099Z,1.40
2018-12-26T17:07:40.343Z,1.30
2018-12-26T17:10:14.578Z,1.20
2018-12-26T17:12:44.829Z,1.20
2018-12-26T17:15:14.986Z,1.10
2018-12-26T17:17:45.217Z,1.00
2018-12-26T17:20:15.495Z,1.00
2018-12-26T17:22:45.894Z,0.90
2018-12-26T17:25:16.027Z,0.90
2018-12-26T17:27:46.710Z,0.80
2018-12-26T17:30:16.955Z,0.80
2018-12-26T17:32:47.182Z,0.70
2018-12-26T17:35:17.327Z,0.70
2018-12-26T17:37:47.578Z,0.70
2018-12-26T17:40:18.491Z,0.70
2018-12-26T17:42:49.044Z,0.70
2018-12-26T17:45:23.945Z,0.70
2018-12-26T17:47:55.967Z,0.60
2018-12-26T17:50:39.868Z,0.60
2018-12-26T17:53:13.169Z,0.60
2018-12-26T17:56:04.390Z,0.60
2018-12-26T17:58:38.672Z,0.60
2018-12-26T18:01:31.857Z,0.50
2018-12-26T18:04:02.257Z,0.40
2018-12-26T18:06:32.428Z,0.40
2018-12-26T18:09:02.699Z,0.30
2018-12-26T18:11:32.766Z,0.30
2018-12-26T18:14:02.909Z,0.30
2018-12-26T18:16:34.986Z,0.30
2018-12-26T18:19:05.189Z,0.20
2018-12-26T18:21:35.504Z,0.20
2018-12-26T18:24:06.196Z,0.20
2018-12-26T18:26:36.610Z,0.10
2018-12-26T18:29:06.869Z,0.10
2018-12-26T18:31:37.055Z,0.00
2018-12-26T18:34:07.400Z,0.00
2018-12-26T18:36:37.695Z,0.00
2018-12-26T18:39:08.602Z,0.00
2018-12-26T18:41:39.021Z,0.00
2018-12-26T18:44:09.178Z,0.00
2018-12-26T18:46:39.379Z,0.00
2018-12-26T18:49:09.615Z,-0.10
2018-12-26T18:51:41.488Z,-0.10
2018-12-26T18:54:11.792Z,-0.10
2018-12-26T18:56:41.899Z,-0.10
2018-12-26T18:59:12.241Z,-0.10
2018-12-26T19:01:42.377Z,-0.10
2018-12-26T19:04:12.612Z,-0.10
2018-12-26T19:06:42.760Z,-0.10
2018-12-26T19:09:13.012Z,-0.20
2018-12-26T19:11:43.317Z,-0.20
2018-12-26T19:14:15.695Z,-0.20
2018-12-26T19:16:45.790Z,-0.20
2018-12-26T19:19:15.994Z,-0.20
2018-12-26T19:21:46.404Z,-0.20
2018-12-26T19:24:16.594Z,-0.20
2018-12-26T19:26:47.235Z,-0.20
2018-12-26T19:29:17.489Z,-0.20
2018-12-26T19:31:47.536Z,-0.20
2018-12-26T19:34:17.766Z,-0.20
2018-12-26T19:36:48.007Z,-0.20
2018-12-26T19:39:18.148Z,-0.20
2018-12-26T19:41:48.404Z,-0.20
2018-12-26T19:44:18.607Z,-0.10
2018-12-26T19:46:49.040Z,-0.10
2018-12-26T19:49:19.222Z,-0.10
2018-12-26T19:51:49.316Z,-0.10
2018-12-26T19:54:19.450Z,-0.10
2018-12-26T19:56:49.749Z,-0.10
2018-12-26T19:59:19.956Z,-0.10
2018-12-26T20:01:50.433Z,-0.20
2018-12-26T20:04:20.686Z,-0.20
2018-12-26T20:06:51.199Z,-0.20
2018-12-26T20:09:21.595Z,-0.10
2018-12-26T20:11:51.782Z,-0.20
2018-12-26T20:14:22.085Z,-0.10
2018-12-26T20:16:54.084Z,0.00
2018-12-26T20:19:24.398Z,0.10
2018-12-26T20:21:54.658Z,0.10
2018-12-26T20:24:25.832Z,0.10
2018-12-26T20:26:56.551Z,0.10
2018-12-26T20:29:27.230Z,0.10
2018-12-26T20:31:57.526Z,0.10
2018-12-26T20:34:27.961Z,0.10
2018-12-26T20:36:58.085Z,0.00
2018-12-26T20:39:28.374Z,-0.10
2018-12-26T20:41:58.562Z,-0.20
2018-12-26T20:44:28.742Z,-0.30
2018-12-26T20:46:59.135Z,-0.30
2018-12-26T20:49:29.556Z,-0.20
2018-12-26T20:51:59.757Z,-0.30
2018-12-26T20:54:29.850Z,-0.30
2018-12-26T20:56:59.981Z,-0.40
2018-12-26T20:59:30.325Z,-0.30
2018-12-26T21:02:05.665Z,-0.40
2018-12-26T21:04:32.305Z,-0.40
2018-12-26T21:07:02.848Z,-0.40
2018-12-26T21:09:33.169Z,-0.40
2018-12-26T21:12:03.325Z,-0.50
2018-12-26T21:14:33.568Z,-0.50
2018-12-26T21:17:03.614Z,-0.50
2018-12-26T21:19:33.787Z,-0.50
2018-12-26T21:22:04.176Z,-0.50
2018-12-26T21:24:34.624Z,-0.50
2018-12-26T21:27:05.043Z,-0.50
2018-12-26T21:29:35.483Z,-0.40
2018-12-26T21:32:13.911Z,-0.40
2018-12-26T21:34:37.549Z,-0.40
2018-12-26T21:37:08.059Z,-0.40
2018-12-26T21:39:38.507Z,-0.40
2018-12-26T21:42:09.597Z,-0.40
2018-12-26T21:44:39.775Z,-0.40
2018-12-26T21:47:09.996Z,-0.40
2018-12-26T21:49:40.945Z,-0.30
2018-12-26T21:52:11.380Z,-0.30
2018-12-26T21:54:41.972Z,-0.30
2018-12-26T21:57:12.082Z,-0.20
2018-12-26T21:59:42.899Z,-0.20
2018-12-26T22:02:22.120Z,-0.30
2018-12-26T22:04:46.047Z,-0.30
2018-12-26T22:07:16.498Z,-0.30
2018-12-26T22:09:46.768Z,-0.30
2018-12-26T22:12:16.993Z,-0.30
2018-12-26T22:14:47.194Z,-0.30
2018-12-26T22:17:17.463Z,-0.30
2018-12-26T22:19:47.740Z,-0.30
2018-12-26T22:22:17.868Z,-0.30
2018-12-26T22:24:48.111Z,-0.20
2018-12-26T22:27:20.252Z,-0.20
2018-12-26T22:29:50.341Z,-0.20
2018-12-26T22:32:30.350Z,-0.20
2018-12-26T22:34:54.130Z,-0.30
2018-12-26T22:37:24.261Z,-0.30
2018-12-26T22:39:54.383Z,-0.30
2018-12-26T22:42:24.595Z,-0.30
2018-12-26T22:44:54.799Z,-0.30
2018-12-26T22:47:24.942Z,-0.30
2018-12-26T22:49:55.081Z,-0.40
2018-12-26T22:52:25.286Z,-0.40
2018-12-26T22:54:55.499Z,-0.40
2018-12-26T22:57:25.659Z,-0.40
2018-12-26T22:59:55.798Z,-0.40
2018-12-26T23:02:25.926Z,-0.40
2018-12-26T23:04:56.026Z,-0.40
2018-12-26T23:07:26.072Z,-0.30
2018-12-26T23:09:56.233Z,-0.30
2018-12-26T23:12:27.937Z,-0.30
2018-12-26T23:14:58.128Z,-0.30
2018-12-26T23:17:30.468Z,-0.20
2018-12-26T23:20:00.628Z,-0.20
2018-12-26T23:22:30.751Z,-0.20
2018-12-26T23:25:00.909Z,-0.20
2018-12-26T23:27:30.958Z,-0.20
2018-12-26T23:30:01.038Z,-0.20
2018-12-26T23:32:31.090Z,-0.10
2018-12-26T23:35:01.216Z,-0.20
2018-12-26T23:37:31.451Z,-0.20
2018-12-26T23:40:01.687Z,-0.20
2018-12-26T23:42:31.772Z,-0.30
2018-12-26T23:45:01.937Z,-0.20
2018-12-26T23:47:32.101Z,-0.20
2018-12-26T23:50:02.275Z,-0.20
2018-12-26T23:52:32.739Z,-0.20
2018-12-26T23:55:02.875Z,-0.20
2018-12-26T23:57:32.980Z,-0.20
